createdAt,value
2022-08-04T00:00:00.688Z,98887.72
2022-08-04T00:02:52.495Z,98889.44
2022-08-04T00:05:34.918Z,98886.22
2022-08-04T00:08:27.874Z,98885.28
2022-08-04T00:11:01.166Z,98892.00
2022-08-04T00:13:33.436Z,98893.75
2022-08-04T00:16:08.221Z,98891.03
2022-08-04T00:18:54.298Z,98898.34
2022-08-04T00:21:26.507Z,98892.41
2022-08-04T00:24:10.716Z,98899.78
2022-08-04T00:26:42.680Z,98897.88
2022-08-04T00:29:12.217Z,98892.69
2022-08-04T00:31:54.774Z,98897.16
2022-08-04T00:34:29.618Z,98893.31
2022-08-04T00:37:00.150Z,98892.19
2022-08-04T00:39:32.142Z,98898.25
2022-08-04T00:42:34.441Z,98889.41
2022-08-04T00:45:31.183Z,98888.22
2022-08-04T00:48:38.789Z,98894.97
2022-08-04T00:51:24.918Z,98892.53
2022-08-04T00:54:12.656Z,98891.22
2022-08-04T00:57:04.342Z,98896.03
2022-08-04T01:00:02.214Z,98891.84
2022-08-04T01:02:40.973Z,98894.06
2022-08-04T01:05:22.903Z,98893.56
2022-08-04T01:08:26.012Z,98891.09
2022-08-04T01:11:10.306Z,98899.84
2022-08-04T01:14:07.048Z,98900.22
2022-08-04T01:16:49.458Z,98892.59
2022-08-04T01:19:55.441Z,98893.59
2022-08-04T01:23:18.126Z,98897.03
2022-08-04T01:26:42.496Z,98894.44
2022-08-04T01:29:15.036Z,98893.44
2022-08-04T01:32:01.231Z,98896.84
2022-08-04T01:34:37.783Z,98893.63
2022-08-04T01:37:19.165Z,98893.44
2022-08-04T01:39:58.056Z,98898.81
2022-08-04T01:42:32.130Z,98890.47
2022-08-04T01:45:08.643Z,98889.81
2022-08-04T01:47:41.645Z,98895.66
2022-08-04T01:50:13.747Z,98894.31
2022-08-04T01:52:50.709Z,98888.53
2022-08-04T01:55:22.001Z,98883.81
2022-08-04T01:57:54.562Z,98890.66
2022-08-04T02:00:28.039Z,98884.22
2022-08-04T02:02:58.313Z,98886.63
2022-08-04T02:06:02.509Z,98887.63
2022-08-04T02:08:29.219Z,98886.25
2022-08-04T02:11:11.349Z,98884.63
2022-08-04T02:13:56.077Z,98882.41
2022-08-04T02:16:42.513Z,98878.88
2022-08-04T02:22:09.947Z,98874.66
2022-08-04T02:24:50.532Z,98872.53
2022-08-04T02:28:00.066Z,98865.50
2022-08-04T02:30:20.672Z,98870.97
2022-08-04T02:32:56.528Z,98871.28
2022-08-04T02:35:28.885Z,98867.72
2022-08-04T02:38:12.611Z,98868.75
2022-08-04T02:40:44.170Z,98870.97
2022-08-04T02:43:16.577Z,98862.31
2022-08-04T02:46:17.531Z,98865.13
2022-08-04T02:48:51.431Z,98863.94
2022-08-04T02:51:25.684Z,98866.97
2022-08-04T02:53:57.658Z,98861.00
2022-08-04T02:56:30.387Z,98855.06
2022-08-04T02:59:03.274Z,98858.91
2022-08-04T03:01:33.532Z,98858.28
2022-08-04T03:04:42.804Z,98853.47
2022-08-04T03:08:00.951Z,98852.44
2022-08-04T03:11:26.081Z,98859.31
2022-08-04T03:14:29.699Z,98862.72
2022-08-04T03:17:53.143Z,98862.91
2022-08-04T03:21:08.108Z,98864.13
2022-08-04T03:24:20.583Z,98867.16
2022-08-04T03:27:13.482Z,98866.56
2022-08-04T03:30:14.545Z,98863.63
2022-08-04T03:33:25.757Z,98865.13
2022-08-04T03:36:36.538Z,98869.53
2022-08-04T03:39:42.073Z,98864.81
2022-08-04T03:42:56.239Z,98868.53
2022-08-04T03:46:16.628Z,98870.75
2022-08-04T03:49:26.136Z,98866.50
2022-08-04T03:52:28.215Z,98866.50
2022-08-04T03:55:40.159Z,98862.91
2022-08-04T03:59:06.899Z,98872.94
2022-08-04T04:02:28.573Z,98873.25
2022-08-04T04:05:33.598Z,98871.06
2022-08-04T04:09:04.160Z,98870.53
2022-08-04T04:12:19.213Z,98868.81
2022-08-04T04:15:20.555Z,98876.38
2022-08-04T04:18:42.428Z,98871.38
2022-08-04T04:21:35.658Z,98870.34
2022-08-04T04:24:45.716Z,98864.81
2022-08-04T04:27:39.613Z,98875.78
2022-08-04T04:30:13.714Z,98876.38
2022-08-04T04:33:09.119Z,98879.00
2022-08-04T04:35:47.988Z,98874.38
2022-08-04T04:38:40.186Z,98878.81
2022-08-04T04:41:38.256Z,98889.78
2022-08-04T04:44:42.365Z,98872.97
2022-08-04T04:47:43.113Z,98880.81
2022-08-04T04:50:33.652Z,98883.31
2022-08-04T04:53:18.935Z,98881.63
2022-08-04T04:55:57.858Z,98882.03
2022-08-04T04:58:34.291Z,98883.34
2022-08-04T05:01:58.323Z,98879.22
2022-08-04T05:05:26.665Z,98882.25
2022-08-04T05:08:58.266Z,98887.63
2022-08-04T05:14:32.126Z,98880.81
2022-08-04T05:15:15.496Z,98880.25
2022-08-04T05:18:00.531Z,98876.44
2022-08-04T05:20:37.260Z,98882.09
2022-08-04T05:23:19.542Z,98881.25
2022-08-04T05:25:59.093Z,98880.66
2022-08-04T05:28:35.891Z,98887.13
2022-08-04T05:31:13.274Z,98877.22
2022-08-04T05:33:49.966Z,98874.22
2022-08-04T05:36:39.888Z,98875.03
2022-08-04T05:39:23.477Z,98874.63
2022-08-04T05:41:55.156Z,98872.06
2022-08-04T05:44:29.557Z,98874.22
2022-08-04T05:47:01.266Z,98878.44
2022-08-04T05:49:34.144Z,98871.94
2022-08-04T05:52:08.999Z,98872.53
2022-08-04T05:54:40.168Z,98872.13
2022-08-04T05:57:12.514Z,98871.69
2022-08-04T05:59:46.765Z,98867.63
2022-08-04T06:02:19.622Z,98866.13
2022-08-04T06:04:53.481Z,98874.38
2022-08-04T06:07:22.861Z,98873.63
2022-08-04T06:09:51.752Z,98871.78
2022-08-04T06:12:26.688Z,98876.78
2022-08-04T06:14:59.895Z,98884.22
2022-08-04T06:18:32.959Z,98879.13
2022-08-04T06:20:32.822Z,98876.47
2022-08-04T06:23:10.139Z,98874.59
2022-08-04T06:25:58.148Z,98879.31
2022-08-04T06:28:29.418Z,98882.41
2022-08-04T06:32:27.250Z,98884.38
2022-08-04T06:33:56.283Z,98884.09
2022-08-04T06:36:26.592Z,98880.59
2022-08-04T06:38:58.469Z,98873.25
2022-08-04T06:41:30.168Z,98876.19
2022-08-04T06:44:05.268Z,98881.31
2022-08-04T06:46:36.622Z,98882.66
2022-08-04T06:49:07.828Z,98885.59
2022-08-04T06:51:49.005Z,98882.75
2022-08-04T06:54:18.423Z,98878.25
2022-08-04T06:56:49.625Z,98885.47
2022-08-04T06:59:20.937Z,98882.44
2022-08-04T07:01:51.334Z,98876.28
2022-08-04T07:04:22.005Z,98874.06
2022-08-04T07:06:51.022Z,98875.34
2022-08-04T07:09:20.201Z,98870.81
2022-08-04T07:11:50.849Z,98874.81
2022-08-04T07:14:21.443Z,98875.25
2022-08-04T07:16:52.203Z,98866.38
2022-08-04T07:19:22.419Z,98867.94
2022-08-04T07:22:18.812Z,98861.78
2022-08-04T07:24:43.539Z,98858.81
2022-08-04T07:27:13.172Z,98860.53
2022-08-04T07:29:42.811Z,98858.66
2022-08-04T07:32:13.799Z,98853.72
2022-08-04T07:34:49.786Z,98855.56
2022-08-04T07:37:19.715Z,98854.50
2022-08-04T07:39:49.240Z,98849.53
2022-08-04T07:42:21.485Z,98845.72
2022-08-04T07:44:50.617Z,98846.06
2022-08-04T07:47:25.245Z,98855.16
2022-08-04T07:49:58.002Z,98849.25
2022-08-04T07:52:28.665Z,98844.13
2022-08-04T07:54:58.064Z,98847.34
2022-08-04T07:57:41.712Z,98842.00
2022-08-04T08:00:15.033Z,98840.22
2022-08-04T08:02:49.532Z,98842.94
2022-08-04T08:05:22.023Z,98837.44
2022-08-04T08:07:54.517Z,98842.91
2022-08-04T08:10:31.066Z,98843.13
2022-08-04T08:13:00.258Z,98839.19
2022-08-04T08:15:29.220Z,98837.66
2022-08-04T08:18:00.497Z,98833.25
2022-08-04T08:20:33.336Z,98830.13
2022-08-04T08:23:04.264Z,98820.94
2022-08-04T08:25:34.696Z,98825.13
2022-08-04T08:28:06.112Z,98822.56
2022-08-04T08:30:35.632Z,98822.03
2022-08-04T08:33:10.823Z,98821.69
2022-08-04T08:35:54.994Z,98823.19
2022-08-04T08:38:41.954Z,98822.81
2022-08-04T08:42:03.674Z,98821.56
2022-08-04T08:45:22.637Z,98813.81
2022-08-04T08:48:15.330Z,98817.03
2022-08-04T08:51:28.852Z,98822.50
2022-08-04T08:54:31.105Z,98821.66
2022-08-04T08:57:24.205Z,98829.41
2022-08-04T09:00:11.314Z,98822.34
2022-08-04T09:03:40.202Z,98821.19
2022-08-04T09:06:49.989Z,98820.97
2022-08-04T09:10:01.629Z,98825.66
2022-08-04T09:12:42.702Z,98829.78
2022-08-04T09:15:20.196Z,98833.06
2022-08-04T09:17:55.522Z,98828.09
2022-08-04T09:20:36.695Z,98831.94
2022-08-04T09:23:25.245Z,98821.16
2022-08-04T09:26:12.624Z,98823.69
2022-08-04T09:28:55.136Z,98826.28
2022-08-04T09:31:51.324Z,98817.94
2022-08-04T09:34:40.658Z,98818.31
2022-08-04T09:37:23.754Z,98820.06
2022-08-04T09:40:06.085Z,98812.31
2022-08-04T09:42:51.463Z,98815.03
2022-08-04T09:45:42.470Z,98807.16
2022-08-04T09:48:21.642Z,98805.75
2022-08-04T09:51:00.209Z,98813.56
2022-08-04T09:53:56.602Z,98818.19
2022-08-04T09:56:39.551Z,98812.78
2022-08-04T09:59:25.275Z,98814.56
2022-08-04T10:02:00.492Z,98812.41
2022-08-04T10:04:33.321Z,98813.09
2022-08-04T10:07:26.221Z,98814.47
2022-08-04T10:10:19.189Z,98811.59
2022-08-04T10:13:19.685Z,98808.38
2022-08-04T10:16:02.264Z,98807.16
2022-08-04T10:18:57.680Z,98802.03
2022-08-04T10:22:29.151Z,98810.69
2022-08-04T10:26:03.706Z,98807.47
2022-08-04T10:28:07.603Z,98809.81
2022-08-04T10:30:41.869Z,98809.00
2022-08-04T10:33:19.564Z,98808.25
2022-08-04T10:35:55.293Z,98805.09
2022-08-04T10:38:40.810Z,98797.59
2022-08-04T10:41:18.944Z,98797.97
2022-08-04T10:44:13.812Z,98796.38
2022-08-04T10:46:51.030Z,98793.63
2022-08-04T10:49:29.482Z,98793.63
2022-08-04T10:52:16.795Z,98795.22
2022-08-04T10:54:55.782Z,98794.47
2022-08-04T10:57:34.364Z,98793.28
2022-08-04T11:00:09.238Z,98787.06
2022-08-04T11:02:52.749Z,98789.44
2022-08-04T11:05:34.371Z,98788.66
2022-08-04T11:08:21.565Z,98787.06
2022-08-04T11:11:02.309Z,98786.44
2022-08-04T11:13:40.967Z,98787.00
2022-08-04T11:16:28.600Z,98780.19
2022-08-04T11:19:12.018Z,98777.78
2022-08-04T11:21:49.328Z,98775.63
2022-08-04T11:24:26.522Z,98776.34
2022-08-04T11:27:02.269Z,98775.84
2022-08-04T11:29:42.299Z,98774.63
2022-08-04T11:32:21.109Z,98784.78
2022-08-04T11:34:58.921Z,98779.97
2022-08-04T11:37:43.968Z,98783.59
2022-08-04T11:40:24.394Z,98769.06
2022-08-04T11:43:02.485Z,98776.28
2022-08-04T11:45:39.212Z,98772.44
2022-08-04T11:48:18.034Z,98784.38
2022-08-04T11:50:54.142Z,98778.06
2022-08-04T11:53:36.485Z,98775.13
2022-08-04T11:56:13.516Z,98772.41
2022-08-04T11:58:50.358Z,98760.75
2022-08-04T12:01:30.330Z,98763.97
2022-08-04T12:04:15.213Z,98755.78
2022-08-04T12:07:04.512Z,98751.88
2022-08-04T12:09:53.744Z,98761.03
2022-08-04T12:12:36.165Z,98752.28
2022-08-04T12:15:21.071Z,98749.88
2022-08-04T12:18:05.857Z,98752.25
2022-08-04T12:20:49.683Z,98748.69
2022-08-04T12:23:26.273Z,98743.53
2022-08-04T12:26:04.220Z,98751.03
2022-08-04T12:29:07.322Z,98739.47
2022-08-04T12:31:36.592Z,98748.19
2022-08-04T12:34:14.252Z,98746.31
2022-08-04T12:36:57.255Z,98734.38
2022-08-04T12:39:29.838Z,98741.47
2022-08-04T12:42:10.101Z,98746.59
2022-08-04T12:44:42.353Z,98738.53
2022-08-04T12:47:27.005Z,98730.44
2022-08-04T12:50:04.067Z,98729.47
2022-08-04T12:53:08.477Z,98728.28
2022-08-04T12:55:38.296Z,98728.34
2022-08-04T12:58:42.232Z,98721.38
2022-08-04T13:02:11.310Z,98727.03
2022-08-04T13:04:14.581Z,98716.81
2022-08-04T13:06:45.862Z,98715.75
2022-08-04T13:09:22.321Z,98715.50
2022-08-04T13:11:56.929Z,98713.63
2022-08-04T13:14:33.600Z,98710.16
2022-08-04T13:17:04.620Z,98705.41
2022-08-04T13:19:41.526Z,98702.25
2022-08-04T13:22:12.188Z,98709.03
2022-08-04T13:24:57.025Z,98703.84
2022-08-04T13:27:48.428Z,98706.25
2022-08-04T13:30:23.010Z,98699.50
2022-08-04T13:32:59.134Z,98703.84
2022-08-04T13:35:55.987Z,98695.91
2022-08-04T13:38:22.237Z,98693.53
2022-08-04T13:40:54.367Z,98699.50
2022-08-04T13:44:15.694Z,98694.34
2022-08-04T13:46:28.699Z,98691.16
2022-08-04T13:51:59.082Z,98694.28
2022-08-04T13:54:36.512Z,98683.97
2022-08-04T13:57:20.994Z,98685.88
2022-08-04T13:59:54.793Z,98677.28
2022-08-04T14:02:35.434Z,98676.56
2022-08-04T14:05:18.492Z,98675.78
2022-08-04T14:07:55.657Z,98674.03
2022-08-04T14:10:25.688Z,98670.25
2022-08-04T14:12:56.997Z,98659.38
2022-08-04T14:16:02.397Z,98656.84
2022-08-04T14:18:29.738Z,98651.47
2022-08-04T14:21:06.920Z,98653.44
2022-08-04T14:23:47.478Z,98655.56
2022-08-04T14:26:20.864Z,98645.69
2022-08-04T14:29:27.421Z,98647.09
2022-08-04T14:32:14.617Z,98639.09
2022-08-04T14:34:46.707Z,98646.53
2022-08-04T14:37:20.734Z,98638.72
2022-08-04T14:40:17.572Z,98645.91
2022-08-04T14:42:43.881Z,98644.03
2022-08-04T14:45:15.969Z,98641.00
2022-08-04T14:47:52.103Z,98633.63
2022-08-04T14:50:34.021Z,98634.25
2022-08-04T14:53:07.393Z,98636.28
2022-08-04T14:55:36.868Z,98634.00
2022-08-04T14:58:32.563Z,98635.34
2022-08-04T15:01:00.066Z,98628.84
2022-08-04T15:03:30.649Z,98623.81
2022-08-04T15:06:08.030Z,98624.41
2022-08-04T15:08:43.298Z,98625.06
2022-08-04T15:11:23.084Z,98626.94
2022-08-04T15:13:52.814Z,98631.97
2022-08-04T15:16:25.775Z,98639.50
2022-08-04T15:18:56.791Z,98624.53
2022-08-04T15:21:29.235Z,98630.56
2022-08-04T15:23:59.101Z,98629.94
2022-08-04T15:26:40.646Z,98620.44
2022-08-04T15:29:18.495Z,98615.84
2022-08-04T15:32:07.906Z,98619.97
2022-08-04T15:34:49.060Z,98624.47
2022-08-04T15:37:26.915Z,98626.44
2022-08-04T15:40:05.635Z,98630.72
2022-08-04T15:42:43.181Z,98626.22
2022-08-04T15:46:34.956Z,98621.56
2022-08-04T15:48:36.654Z,98621.25
2022-08-04T15:51:14.648Z,98618.97
2022-08-04T15:54:30.820Z,98619.75
2022-08-04T15:57:03.695Z,98612.97
2022-08-04T16:00:03.023Z,98614.91
2022-08-04T16:02:44.457Z,98614.16
2022-08-04T16:05:43.785Z,98611.44
2022-08-04T16:08:22.355Z,98607.94
2022-08-04T16:10:52.916Z,98611.59
2022-08-04T17:50:43.408Z,98597.19
2022-08-04T17:53:13.426Z,98596.28
2022-08-04T17:55:49.582Z,98599.34
2022-08-04T17:58:22.142Z,98600.84
2022-08-04T18:01:22.622Z,98604.75
2022-08-04T18:03:53.340Z,98603.44
2022-08-04T18:06:26.054Z,98605.28
2022-08-04T18:09:22.798Z,98604.47
2022-08-04T18:11:58.751Z,98605.19
2022-08-04T18:14:31.101Z,98598.84
2022-08-04T18:16:59.939Z,98597.13
2022-08-04T18:19:31.417Z,98602.91
2022-08-04T18:22:01.855Z,98605.59
2022-08-04T18:24:35.544Z,98602.31
2022-08-04T18:27:26.007Z,98595.75
2022-08-04T18:30:33.855Z,98609.16
2022-08-04T18:33:24.682Z,98611.38
2022-08-04T18:36:32.467Z,98610.56
2022-08-04T18:38:30.702Z,98606.88
2022-08-04T18:40:59.604Z,98613.03
2022-08-04T18:46:17.325Z,98618.81
2022-08-04T18:48:52.185Z,98623.34
2022-08-04T18:51:25.261Z,98627.19
2022-08-04T18:54:01.902Z,98631.06
2022-08-04T18:56:34.004Z,98631.31
2022-08-04T18:59:10.028Z,98631.97
2022-08-04T19:02:13.662Z,98628.28
2022-08-04T19:04:32.463Z,98633.25
2022-08-04T19:07:23.309Z,98632.81
2022-08-04T19:09:57.819Z,98640.13
2022-08-04T19:12:29.134Z,98638.03
2022-08-04T19:15:10.331Z,98638.34
2022-08-04T19:17:57.373Z,98637.78
2022-08-04T19:20:31.441Z,98642.28
2022-08-04T19:24:30.463Z,98639.81
2022-08-04T19:26:02.610Z,98644.72
2022-08-04T19:28:37.246Z,98645.31
2022-08-04T19:31:09.479Z,98645.31
2022-08-04T19:33:58.276Z,98647.56
2022-08-04T19:36:32.575Z,98637.53
2022-08-04T19:39:11.603Z,98642.19
2022-08-04T19:42:04.741Z,98642.06
2022-08-04T19:44:31.224Z,98639.50
2022-08-04T19:47:02.500Z,98644.50
2022-08-04T19:50:04.946Z,98644.34
2022-08-04T19:52:40.299Z,98646.94
2022-08-04T19:55:22.871Z,98645.16
2022-08-04T19:58:10.558Z,98645.88
2022-08-04T20:00:44.677Z,98642.75
2022-08-04T20:03:21.069Z,98651.72
2022-08-04T20:05:54.821Z,98650.94
2022-08-04T20:08:25.199Z,98654.03
2022-08-04T20:10:54.915Z,98658.66
2022-08-04T20:13:37.152Z,98648.97
2022-08-04T20:16:20.214Z,98655.09
2022-08-04T20:21:55.232Z,98647.88
2022-08-04T20:24:44.185Z,98646.91
2022-08-04T20:27:19.396Z,98651.50
2022-08-04T20:29:55.566Z,98656.41
2022-08-04T20:32:26.531Z,98656.56
2022-08-04T20:34:57.624Z,98652.69
2022-08-04T20:37:29.045Z,98654.69
2022-08-04T20:40:17.670Z,98649.00
2022-08-04T20:42:48.156Z,98647.75
2022-08-04T20:45:18.451Z,98652.44
2022-08-04T20:47:54.306Z,98655.44
2022-08-04T20:50:30.155Z,98645.50
2022-08-04T20:52:59.498Z,98643.34
2022-08-04T20:55:29.644Z,98647.03
2022-08-04T20:58:02.484Z,98653.78
2022-08-04T21:00:33.763Z,98647.03
2022-08-04T21:03:03.284Z,98647.97
2022-08-04T21:05:32.521Z,98651.50
2022-08-04T21:08:01.845Z,98649.66
2022-08-04T21:10:30.977Z,98647.28
2022-08-04T21:12:59.994Z,98652.91
2022-08-04T21:15:58.567Z,98647.72
2022-08-04T21:18:18.906Z,98650.03
2022-08-04T21:20:58.083Z,98652.66
2022-08-04T21:23:26.985Z,98647.88
2022-08-04T21:26:01.939Z,98653.16
2022-08-04T21:28:31.330Z,98656.25
2022-08-04T21:31:02.558Z,98648.34
2022-08-04T21:33:50.603Z,98641.16
2022-08-04T21:36:21.290Z,98649.28
2022-08-04T21:38:52.485Z,98644.94
2022-08-04T21:41:24.837Z,98647.91
2022-08-04T21:43:56.604Z,98644.59
2022-08-04T21:46:30.075Z,98641.72
2022-08-04T21:49:01.396Z,98638.66
2022-08-04T21:51:59.150Z,98648.38
2022-08-04T21:54:24.006Z,98641.25
2022-08-04T21:56:52.814Z,98646.63
2022-08-04T21:59:24.010Z,98646.88
2022-08-04T22:02:01.797Z,98642.63
2022-08-04T22:04:32.446Z,98635.78
2022-08-04T22:07:02.975Z,98628.91
2022-08-04T22:09:41.046Z,98639.66
2022-08-04T22:12:12.448Z,98633.38
2022-08-04T22:14:42.246Z,98640.66
2022-08-04T22:17:19.058Z,98636.69
2022-08-04T22:19:54.968Z,98630.81
2022-08-04T22:22:27.216Z,98639.59
2022-08-04T22:25:12.611Z,98638.31
2022-08-04T22:28:03.685Z,98639.47
2022-08-04T22:30:36.801Z,98641.31
2022-08-04T22:33:08.850Z,98634.28
2022-08-04T22:35:48.786Z,98633.03
2022-08-04T22:38:29.014Z,98630.59
2022-08-04T22:41:10.168Z,98628.66
2022-08-04T22:43:40.345Z,98628.56
2022-08-04T22:46:12.957Z,98628.91
2022-08-04T22:48:45.071Z,98629.91
2022-08-04T22:51:15.195Z,98626.16
2022-08-04T22:53:48.914Z,98627.75
2022-08-04T22:56:38.002Z,98626.94
2022-08-04T22:59:11.343Z,98624.22
2022-08-04T23:01:58.694Z,98619.84
2022-08-04T23:04:32.427Z,98622.69
2022-08-04T23:07:09.554Z,98619.34
2022-08-04T23:09:50.895Z,98622.19
2022-08-04T23:12:26.297Z,98624.44
2022-08-04T23:14:56.540Z,98622.59
2022-08-04T23:17:27.244Z,98622.94
2022-08-04T23:19:57.639Z,98626.47
2022-08-04T23:22:41.835Z,98616.19
2022-08-04T23:25:16.318Z,98623.13
2022-08-04T23:27:50.883Z,98627.22
2022-08-04T23:30:29.966Z,98622.06
2022-08-04T23:32:59.535Z,98618.84
2022-08-04T23:35:28.413Z,98617.72
2022-08-04T23:37:59.799Z,98617.25
2022-08-04T23:40:50.307Z,98610.19
2022-08-04T23:43:19.626Z,98602.16
2022-08-04T23:46:04.940Z,98603.94
2022-08-04T23:48:39.052Z,98603.47
2022-08-04T23:51:15.051Z,98611.22
2022-08-04T23:54:02.173Z,98608.84
2022-08-04T23:56:34.658Z,98604.81
2022-08-04T23:59:04.698Z,98602.28
